Airfield :







YOU CAN JOIN US ON...

 
LOGIN :

Register | Disclaimer

   EN    FR    IT 

 









Legend :    VFR   Marginal VFR   IFR   Intensive IFR   Very Intensive IFR
Visi :
Ceiling :
>= 8 km
>= 3000ft
5 to 8 km
1000 to 3000 ft
1500m to 5 km
500 to 1000 ft
800 to 1500m
200 to 500 ft
< 800m
< 200 ft
Symbols :   Thunderstorms  Fog  Heavy snow  Heavy precipitations  Wind > 20 kt






- Airport Elevation : 160 ft
- IATA code : YYR


CYYR - Goose Bay

CURRENT METAR :
  • 061035Z 27005KT 6SM -SN SCT018 BKN040 OVC055 M05/M06 A2940 RMK SC3SC4SC1 SLP959

EXPIRED METARs :
  • 061013Z 27007KT 3SM -SN SCT022 OVC040 M05/M06 A2940 RMK SC3SC5 SLP958
  • 060900Z 28007KT 6SM -SN BKN028 OVC041 M04/M05 A2939 RMK SC6SC2 SLP956
  • 060800Z 28006KT 7SM -SN OVC056 M04/M06 A2939 RMK SC8 SLP956

TAF TAF CYYR
Valid from the 06 at 06:00 until the 07 at 06:00 UTC


060530Z 0606/0706 29005KT 6SM -SN SCT010 OVC030
TEMPO 0606/0619 4SM -SN BKN010 OVC030
PROB30 0606/0615 2SM -SN VV008
FM061900 27005KT P6SM -SN FEW010 OVC040
FM070200 27008KT P6SM FEW020 BKN030 RMK NXT FCST BY 061200Z



MET'MAP, your aeronautical weather chart ! - Copyright ORBIFLY December 2007 - Disclaimer

ORBIFLY MET'MAP TEAM :

Programming & Development : Alexandra Zaïnal
Concept & original design : Baudouin d'Aumeries
Assistance for programming : Marc-Olivier Méhu
Technical & hardware support : Manuel Goepfert

Contact : metmap@orbifly.com




SOURCES & CREDITS :

   NOAA